Pennville, Indiana
Current Conditions -  °F | °C
As of 12:53 AM on Saturday 29 Nov 2014 (Local Time) from KMIE Reporting Station
Clear Clear  
Wind Chill: 25°   Ceiling: Unl
Heat Index: 33°   Visibility: 10mi
Dew Point: 20°   Wind: 10mph
Humidity: 59%   Direction: 180°S
Pressure: 30"   Gusts: NA
Location:  40.49°N, 85.15°W
Report Text: KMIE 290553Z AUTO 18009KT 10SM CLR 01/M07 A3000 RMK AO2 SLP165 T00061067 10011 21006 56016
Loading
Personal Weather Stations






























Interactive Weather Map New forecast layout! Learn more

10-Day Weather Forecast

Advertisements
Track Severe Weather on mobile